Time;durP1;ratioP1;P1;durP2;ratioP2;P2;SDS_P1;SDS_P2;PMS_P1;PMS_P2;Temp;Humidity;BMP_temperature;BMP_pressure;BME280_temperature;BME280_humidity;BME280_pressure;Samples;Min_cycle;Max_cycle;Signal;HPM_P1;HPM_P2
2022/08/11 00:01:54;;;;;;;4.55;2.75;;;;;;;;;;2585374;53;21180;-78
2022/08/11 00:04:23;;;;;;;3.58;2.47;;;;;;;;;;2339064;57;21145;-76
2022/08/11 00:06:51;;;;;;;6.45;2.83;;;;;;;;;;2580649;53;21087;-77
2022/08/11 00:09:20;;;;;;;5.47;2.67;;;;;;;;;;2338599;57;21101;-76
2022/08/11 00:11:49;;;;;;;5.82;3.40;;;;;;;;;;2585083;53;21061;-79
2022/08/11 00:14:18;;;;;;;6.65;2.80;;;;;;;;;;2584389;53;21076;-79
2022/08/11 00:16:53;;;;;;;3.37;2.70;;;;;;;;;;2338866;57;21123;-79
2022/08/11 00:19:21;;;;;;;5.57;3.20;;;;;;;;;;2338907;57;21100;-78
2022/08/11 00:21:48;;;;;;;4.87;2.87;;;;;;;;;;2583954;53;21045;-79
2022/08/11 00:24:16;;;;;;;12.95;4.53;;;;;;;;;;2339135;57;21068;-79
2022/08/11 00:26:48;;;;;;;5.62;2.70;;;;;;;;;;2338557;57;21176;-77
2022/08/11 00:29:15;;;;;;;3.42;2.83;;;;;;;;;;2339381;57;21057;-79
2022/08/11 00:31:45;;;;;;;4.65;2.83;;;;;;;;;;2338133;57;21184;-79
2022/08/11 00:34:13;;;;;;;3.70;2.55;;;;;;;;;;2339695;57;21103;-79
2022/08/11 00:36:43;;;;;;;4.40;2.45;;;;;;;;;;2338564;57;21069;-79
2022/08/11 00:39:11;;;;;;;4.43;2.35;;;;;;;;;;2583418;53;21532;-76
2022/08/11 00:41:42;;;;;;;4.00;2.55;;;;;;;;;;2584471;53;21485;-79
2022/08/11 00:44:19;;;;;;;3.75;2.72;;;;;;;;;;2583891;53;21152;-79
2022/08/11 00:46:54;;;;;;;5.65;2.80;;;;;;;;;;2583817;53;21112;-76
2022/08/11 00:49:25;;;;;;;3.95;2.67;;;;;;;;;;2338870;57;21784;-79
2022/08/11 00:51:59;;;;;;;5.18;2.92;;;;;;;;;;2583998;53;21064;-77
2022/08/11 00:54:39;;;;;;;3.78;2.60;;;;;;;;;;2338966;57;21215;-79
2022/08/11 00:57:16;;;;;;;2.62;2.37;;;;;;;;;;2582661;53;21108;-78
2022/08/11 01:00:03;;;;;;;6.37;2.92;;;;;;;;;;2584931;53;22110;-79
2022/08/11 01:02:44;;;;;;;2.70;2.50;;;;;;;;;;2339507;57;21077;-78
2022/08/11 01:05:29;;;;;;;5.07;2.75;;;;;;;;;;2338627;57;21136;-74
2022/08/11 01:08:24;;;;;;;4.28;2.92;;;;;;;;;;2584302;53;21073;-76
2022/08/11 01:14:02;;;;;;;3.78;2.70;;;;;;;;;;2537550;54;22554;-79
2022/08/11 01:16:58;;;;;;;3.40;2.50;;;;;;;;;;2527483;55;21067;-78
2022/08/11 01:19:37;;;;;;;4.57;2.97;;;;;;;;;;2291959;58;21122;-78
2022/08/11 01:24:58;;;;;;;4.65;2.80;;;;;;;;;;2605939;53;22050;-78
2022/08/11 01:27:48;;;;;;;6.70;3.20;;;;;;;;;;2346468;57;21935;-75
2022/08/11 01:30:27;;;;;;;3.12;2.58;;;;;;;;;;2595440;53;21614;-75
2022/08/11 01:33:09;;;;;;;5.00;2.75;;;;;;;;;;2370707;56;21038;-77
2022/08/11 01:35:44;;;;;;;5.05;3.50;;;;;;;;;;2374839;56;21027;-78
2022/08/11 01:38:38;;;;;;;3.37;2.78;;;;;;;;;;2375443;56;21086;-74
2022/08/11 01:44:36;;;;;;;4.45;2.70;;;;;;;;;;2375890;56;21039;-78
2022/08/11 01:50:14;;;;;;;5.97;3.58;;;;;;;;;;2375206;56;21513;-77
2022/08/11 01:52:48;;;;;;;5.22;3.30;;;;;;;;;;2375887;56;21043;-78
2022/08/11 01:55:17;;;;;;;4.53;3.55;;;;;;;;;;2375868;56;21604;-78
2022/08/11 01:57:50;;;;;;;3.92;3.50;;;;;;;;;;2629022;52;21125;-78
2022/08/11 02:00:19;;;;;;;5.95;3.28;;;;;;;;;;2375601;56;21133;-78
2022/08/11 02:02:52;;;;;;;7.93;3.53;;;;;;;;;;2375587;56;21097;-78
2022/08/11 02:05:39;;;;;;;4.28;2.87;;;;;;;;;;2375033;56;21193;-75
2022/08/11 02:08:11;;;;;;;6.05;3.45;;;;;;;;;;2602831;52;21043;-78
2022/08/11 02:13:34;;;;;;;3.05;2.53;;;;;;;;;;2376012;56;21062;-78
2022/08/11 02:16:08;;;;;;;4.07;3.15;;;;;;;;;;2627830;52;21550;-79
2022/08/11 02:24:26;;;;;;;3.72;3.00;;;;;;;;;;2373924;56;21070;-79
2022/08/11 02:27:00;;;;;;;4.40;2.78;;;;;;;;;;2628233;52;21106;-75
2022/08/11 02:29:26;;;;;;;;;;;;;;;;;;2633069;52;21078;-76
2022/08/11 02:34:55;;;;;;;4.40;3.30;;;;;;;;;;2375564;56;21010;-77
2022/08/11 02:37:34;;;;;;;7.07;3.05;;;;;;;;;;2374430;56;21046;-78
2022/08/11 02:40:11;;;;;;;4.45;2.70;;;;;;;;;;2374882;56;21023;-77
2022/08/11 02:42:43;;;;;;;5.47;3.08;;;;;;;;;;2374763;56;21042;-78
2022/08/11 02:45:28;;;;;;;5.75;3.10;;;;;;;;;;2374625;56;21055;-77
2022/08/11 02:50:52;;;;;;;4.10;2.90;;;;;;;;;;2374464;56;20971;-77
2022/08/11 02:53:25;;;;;;;4.40;3.00;;;;;;;;;;2627844;52;21597;-77
2022/08/11 02:55:57;;;;;;;6.45;3.15;;;;;;;;;;2627028;52;21038;-78
2022/08/11 02:58:31;;;;;;;2.97;2.67;;;;;;;;;;2628519;52;21305;-79
2022/08/11 03:01:03;;;;;;;3.47;2.87;;;;;;;;;;2628421;52;21260;-79
2022/08/11 03:03:32;;;;;;;3.80;2.85;;;;;;;;;;2373479;56;21114;-79
2022/08/11 03:06:05;;;;;;;4.28;2.90;;;;;;;;;;2373864;56;21142;-78
2022/08/11 03:08:41;;;;;;;4.60;3.10;;;;;;;;;;2374794;56;21063;-78
2022/08/11 03:16:54;;;;;;;3.05;2.75;;;;;;;;;;2374127;56;21601;-77
2022/08/11 03:19:28;;;;;;;4.78;3.28;;;;;;;;;;2626484;52;21067;-77
2022/08/11 03:21:59;;;;;;;5.87;3.33;;;;;;;;;;2627600;52;21034;-78
2022/08/11 03:24:31;;;;;;;4.78;3.15;;;;;;;;;;2374136;56;21364;-76
2022/08/11 03:27:03;;;;;;;4.18;3.30;;;;;;;;;;2374102;56;21050;-79
2022/08/11 03:29:34;;;;;;;4.72;3.05;;;;;;;;;;2374748;56;21641;-75
2022/08/11 03:32:05;;;;;;;3.42;3.10;;;;;;;;;;2374462;56;21651;-76
2022/08/11 03:34:35;;;;;;;3.58;3.03;;;;;;;;;;2374025;56;21110;-78
2022/08/11 03:40:13;;;;;;;4.05;3.03;;;;;;;;;;2374958;56;21040;-76
2022/08/11 03:42:46;;;;;;;5.78;3.58;;;;;;;;;;2374896;56;21620;-78
2022/08/11 03:45:20;;;;;;;3.87;2.92;;;;;;;;;;2627496;52;21094;-75
2022/08/11 03:47:57;;;;;;;5.40;2.67;;;;;;;;;;2374386;56;21027;-79
2022/08/11 03:50:32;;;;;;;5.82;3.10;;;;;;;;;;2626576;52;21640;-78
2022/08/11 03:53:06;;;;;;;4.37;2.92;;;;;;;;;;2374451;56;21541;-79
2022/08/11 03:55:57;;;;;;;4.82;2.75;;;;;;;;;;2627736;52;21468;-79
2022/08/11 03:58:41;;;;;;;6.50;3.12;;;;;;;;;;2373354;56;21122;-79
2022/08/11 04:01:28;;;;;;;4.22;2.72;;;;;;;;;;2372811;56;21122;-75
2022/08/11 04:04:20;;;;;;;3.25;2.85;;;;;;;;;;2627722;52;21106;-76
2022/08/11 04:07:05;;;;;;;4.55;3.08;;;;;;;;;;2569267;52;21047;-76
2022/08/11 04:09:50;;;;;;;5.47;3.33;;;;;;;;;;2627187;52;21043;-78
2022/08/11 04:12:36;;;;;;;3.10;2.78;;;;;;;;;;2628289;52;21047;-78
2022/08/11 04:18:22;;;;;;;3.62;2.50;;;;;;;;;;2373718;56;21034;-76
2022/08/11 04:20:57;;;;;;;3.37;2.70;;;;;;;;;;2374245;56;21529;-78
2022/08/11 04:23:42;;;;;;;3.80;2.40;;;;;;;;;;2375312;56;21087;-78
2022/08/11 04:26:30;;;;;;;3.00;2.40;;;;;;;;;;2374672;56;21134;-77
2022/08/11 04:29:04;;;;;;;5.05;2.70;;;;;;;;;;2628692;52;21314;-75
2022/08/11 04:31:37;;;;;;;4.78;2.60;;;;;;;;;;2375020;56;21042;-78
2022/08/11 04:34:32;;;;;;;4.00;2.20;;;;;;;;;;2627796;52;21114;-78
2022/08/11 04:40:16;;;;;;;3.37;2.42;;;;;;;;;;2374950;56;20979;-78
2022/08/11 04:43:21;;;;;;;2.28;2.08;;;;;;;;;;2328944;56;21078;-78
2022/08/11 04:46:01;;;;;;;2.78;2.35;;;;;;;;;;2624507;52;21098;-77
2022/08/11 05:03:08;;;;;;;3.12;2.78;;;;;;;;;;2374252;56;21066;-77
2022/08/11 05:05:48;;;;;;;3.47;2.55;;;;;;;;;;2625681;52;21605;-77
2022/08/11 05:08:44;;;;;;;3.00;2.67;;;;;;;;;;2626909;52;21059;-76
2022/08/11 05:11:28;;;;;;;3.55;2.60;;;;;;;;;;2374376;56;21042;-78
2022/08/11 05:36:37;;;;;;;7.25;4.00;;;;;;;;;;2374439;56;21006;-78
2022/08/11 05:58:39;;;;;;;9.80;3.37;;;;;;;;;;2300661;54;20990;-78
2022/08/11 06:01:07;;;;;;;6.70;3.83;;;;;;;;;;2353499;54;21145;-78
2022/08/11 06:04:12;;;;;;;5.05;3.70;;;;;;;;;;2301869;58;21042;-79
2022/08/11 06:06:40;;;;;;;7.65;3.15;;;;;;;;;;2301345;58;21067;-78
2022/08/11 06:09:08;;;;;;;8.63;3.55;;;;;;;;;;2300984;58;21138;-78
2022/08/11 06:11:39;;;;;;;6.57;3.72;;;;;;;;;;2302093;58;21166;-78
2022/08/11 06:14:07;;;;;;;4.47;3.20;;;;;;;;;;2314345;54;21054;-78
2022/08/11 06:16:34;;;;;;;6.18;3.15;;;;;;;;;;2300517;58;21126;-78
2022/08/11 06:19:02;;;;;;;4.55;4.05;;;;;;;;;;2301955;58;21695;-78
2022/08/11 06:21:31;;;;;;;4.97;3.90;;;;;;;;;;2301874;58;21290;-78
2022/08/11 06:23:59;;;;;;;4.05;3.45;;;;;;;;;;2302293;58;21078;-78
2022/08/11 06:26:26;;;;;;;7.82;3.25;;;;;;;;;;2300289;58;21106;-78
2022/08/11 06:28:58;;;;;;;3.87;3.08;;;;;;;;;;2321870;54;21647;-78
2022/08/11 06:31:25;;;;;;;4.72;3.70;;;;;;;;;;2300938;54;21066;-78
2022/08/11 06:34:00;;;;;;;4.12;3.25;;;;;;;;;;2302070;58;21050;-78
2022/08/11 06:36:33;;;;;;;3.92;3.03;;;;;;;;;;2301492;58;21058;-78
2022/08/11 06:39:04;;;;;;;5.07;3.00;;;;;;;;;;2302222;58;21078;-79
2022/08/11 06:41:38;;;;;;;4.05;3.40;;;;;;;;;;2328768;54;21050;-78
2022/08/11 06:44:15;;;;;;;5.53;3.10;;;;;;;;;;2324736;54;21102;-78
2022/08/11 06:46:43;;;;;;;4.00;2.72;;;;;;;;;;2301094;58;21062;-78
2022/08/11 06:52:00;;;;;;;4.40;2.85;;;;;;;;;;2336307;54;21138;-78
2022/08/11 06:54:29;;;;;;;3.92;2.83;;;;;;;;;;2351712;54;21122;-79
2022/08/11 07:02:32;;;;;;;4.05;2.80;;;;;;;;;;2308220;54;21090;-79
2022/08/11 07:05:01;;;;;;;4.95;2.67;;;;;;;;;;2343581;54;21125;-79
2022/08/11 07:16:18;;;;;;;2.65;2.33;;;;;;;;;;2358637;54;21013;-78
2022/08/11 07:29:58;;;;;;;5.03;2.00;;;;;;;;;;2301692;54;20975;-78
2022/08/11 07:32:28;;;;;;;2.70;2.22;;;;;;;;;;2298514;58;21062;-78
2022/08/11 07:34:59;;;;;;;5.55;2.30;;;;;;;;;;2300565;58;21058;-79
2022/08/11 07:37:29;;;;;;;3.70;1.92;;;;;;;;;;2300433;58;21129;-78
2022/08/11 07:39:58;;;;;;;3.25;2.40;;;;;;;;;;2300897;58;21097;-79
2022/08/11 07:42:27;;;;;;;2.90;2.20;;;;;;;;;;2301106;58;21034;-78
2022/08/11 07:53:14;;;;;;;2.95;1.98;;;;;;;;;;2321686;54;21022;-77
2022/08/11 07:55:42;;;;;;;3.17;1.62;;;;;;;;;;2299249;58;21140;-77
2022/08/11 08:17:50;;;;;;;3.20;1.87;;;;;;;;;;2301949;54;21091;-79
2022/08/11 08:20:19;;;;;;;1.83;1.73;;;;;;;;;;2301472;58;21202;-77
2022/08/11 08:22:46;;;;;;;2.47;1.98;;;;;;;;;;2301796;58;21047;-79
2022/08/11 08:25:14;;;;;;;2.62;1.80;;;;;;;;;;2301293;55;21050;-79
2022/08/11 08:27:42;;;;;;;2.72;1.75;;;;;;;;;;2302044;58;21213;-79
2022/08/11 08:32:57;;;;;;;3.00;2.28;;;;;;;;;;2302164;54;21213;-79
2022/08/11 08:35:25;;;;;;;2.97;2.30;;;;;;;;;;2302155;58;21074;-79
2022/08/11 08:37:52;;;;;;;2.60;2.08;;;;;;;;;;2347046;54;21073;-79
2022/08/11 08:40:20;;;;;;;2.70;2.03;;;;;;;;;;2302578;58;21062;-79
2022/08/11 08:42:53;;;;;;;3.75;1.95;;;;;;;;;;2302488;58;21102;-79
2022/08/11 08:45:21;;;;;;;4.18;2.35;;;;;;;;;;2301255;58;21114;-79
2022/08/11 08:47:52;;;;;;;2.80;2.10;;;;;;;;;;2322364;54;21055;-79
2022/08/11 08:50:22;;;;;;;2.60;2.15;;;;;;;;;;2307260;54;21070;-79
2022/08/11 08:52:53;;;;;;;3.42;2.28;;;;;;;;;;2301500;58;21145;-79
2022/08/11 08:55:21;;;;;;;3.05;1.90;;;;;;;;;;2301249;58;21588;-79
2022/08/11 08:57:50;;;;;;;2.05;1.80;;;;;;;;;;2301446;58;21074;-79
2022/08/11 09:00:18;;;;;;;3.00;2.10;;;;;;;;;;2302198;55;21050;-79
2022/08/11 09:02:45;;;;;;;4.35;2.17;;;;;;;;;;2311268;54;21062;-79
2022/08/11 09:05:13;;;;;;;3.90;2.10;;;;;;;;;;2301952;58;21043;-79
2022/08/11 09:07:40;;;;;;;2.67;1.80;;;;;;;;;;2301315;58;21182;-79
2022/08/11 09:10:09;;;;;;;2.17;1.98;;;;;;;;;;2307464;54;21066;-79
2022/08/11 09:12:38;;;;;;;2.03;1.67;;;;;;;;;;2301183;58;21063;-79
2022/08/11 09:15:08;;;;;;;2.15;1.80;;;;;;;;;;2302016;58;21130;-79
2022/08/11 09:17:39;;;;;;;4.30;1.65;;;;;;;;;;2314872;54;21054;-79
2022/08/11 09:20:07;;;;;;;1.50;1.40;;;;;;;;;;2302182;58;21109;-79
2022/08/11 09:28:10;;;;;;;4.35;1.65;;;;;;;;;;2301763;58;21554;-78
2022/08/11 09:30:37;;;;;;;1.73;1.52;;;;;;;;;;2301161;58;21117;-78
2022/08/11 09:33:05;;;;;;;2.90;1.75;;;;;;;;;;2301717;58;21067;-79
2022/08/11 09:35:37;;;;;;;2.08;1.73;;;;;;;;;;2301413;58;21154;-79
2022/08/11 09:40:51;;;;;;;2.28;1.58;;;;;;;;;;2300898;54;21002;-79
2022/08/11 09:46:05;;;;;;;1.60;1.40;;;;;;;;;;2302794;54;21392;-79
2022/08/11 09:48:38;;;;;;;5.70;1.73;;;;;;;;;;2319300;54;21126;-80
2022/08/11 09:51:07;;;;;;;3.25;1.62;;;;;;;;;;2302727;58;21071;-79
2022/08/11 09:53:37;;;;;;;2.60;1.37;;;;;;;;;;2329906;54;21130;-81
2022/08/11 09:58:12;;;;;;;2.30;1.37;;;;;;;;;;2301067;58;21121;-79
2022/08/11 10:00:39;;;;;;;2.37;1.40;;;;;;;;;;2337658;54;21177;-80
2022/08/11 10:03:08;;;;;;;1.50;1.37;;;;;;;;;;2301639;58;21082;-80
2022/08/11 10:08:22;;;;;;;6.05;1.70;;;;;;;;;;2301101;54;21010;-79
2022/08/11 10:10:50;;;;;;;2.17;1.40;;;;;;;;;;2302327;58;21054;-79
2022/08/11 10:13:21;;;;;;;2.65;1.48;;;;;;;;;;2302582;58;21069;-79
2022/08/11 10:15:49;;;;;;;2.00;1.50;;;;;;;;;;2302218;58;21131;-80
2022/08/11 10:21:05;;;;;;;2.72;1.50;;;;;;;;;;2301724;54;21002;-79
2022/08/11 10:33:58;;;;;;;3.83;1.40;;;;;;;;;;2302806;54;20987;-80
2022/08/11 10:36:45;;;;;;;1.80;1.35;;;;;;;;;;2300013;58;21078;-80
2022/08/11 10:39:16;;;;;;;2.35;1.45;;;;;;;;;;2322244;54;21114;-79
2022/08/11 10:44:33;;;;;;;1.73;1.20;;;;;;;;;;2305872;54;21002;-79
2022/08/11 10:51:11;;;;;;;3.65;1.17;;;;;;;;;;2307593;54;20994;-82
2022/08/11 10:59:16;;;;;;;1.70;1.10;;;;;;;;;;2322071;54;21025;-81
2022/08/11 11:01:43;;;;;;;2.97;1.58;;;;;;;;;;2301800;58;21197;-82
2022/08/11 11:04:13;;;;;;;4.30;1.67;;;;;;;;;;2301427;58;21160;-82
2022/08/11 11:06:47;;;;;;;1.75;1.23;;;;;;;;;;2301459;58;21062;-83
2022/08/11 11:09:16;;;;;;;4.72;1.25;;;;;;;;;;2321565;54;21074;-82
2022/08/11 11:20:06;;;;;;;0.95;0.73;;;;;;;;;;2302131;54;20970;-82
2022/08/11 11:22:40;;;;;;;1.70;1.00;;;;;;;;;;2378147;54;21082;-82
2022/08/11 11:25:20;;;;;;;1.80;1.10;;;;;;;;;;2414860;54;21078;-82
2022/08/11 11:27:53;;;;;;;1.10;1.00;;;;;;;;;;2323323;54;21190;-84
2022/08/11 11:30:20;;;;;;;2.72;1.35;;;;;;;;;;2302181;58;21078;-83
2022/08/11 11:32:56;;;;;;;1.20;1.10;;;;;;;;;;2301933;58;21057;-82
2022/08/11 11:35:30;;;;;;;2.22;1.23;;;;;;;;;;2301527;58;21066;-82
2022/08/11 11:37:57;;;;;;;3.40;1.17;;;;;;;;;;2301639;58;21082;-82
2022/08/11 11:40:25;;;;;;;1.55;1.27;;;;;;;;;;2311330;54;21070;-80
2022/08/11 11:42:54;;;;;;;1.55;1.23;;;;;;;;;;2302201;58;21061;-80
2022/08/11 11:45:24;;;;;;;1.27;1.05;;;;;;;;;;2301725;58;21062;-80
2022/08/11 11:47:52;;;;;;;2.00;1.02;;;;;;;;;;2461635;53;69550;-81
2022/08/11 11:50:23;;;;;;;1.60;1.00;;;;;;;;;;2323279;58;21059;-81
2022/08/11 11:52:51;;;;;;;2.03;1.37;;;;;;;;;;2323528;58;21419;-81
2022/08/11 11:55:19;;;;;;;1.37;1.05;;;;;;;;;;2565351;54;21082;-80
2022/08/11 12:03:19;;;;;;;1.65;1.15;;;;;;;;;;2350305;57;21016;-79
2022/08/11 12:05:47;;;;;;;1.92;0.80;;;;;;;;;;2350007;57;21115;-79
2022/08/11 12:08:15;;;;;;;1.17;1.08;;;;;;;;;;2596223;52;21065;-80
2022/08/11 12:10:44;;;;;;;1.20;1.10;;;;;;;;;;2349882;57;21049;-78
2022/08/11 12:15:59;;;;;;;3.25;1.27;;;;;;;;;;2350629;57;20996;-81
2022/08/11 12:18:26;;;;;;;3.00;0.85;;;;;;;;;;2351706;57;21069;-81
2022/08/11 12:20:53;;;;;;;1.10;1.00;;;;;;;;;;2350910;57;21133;-80
2022/08/11 12:28:51;;;;;;;1.55;1.00;;;;;;;;;;2351550;57;20996;-81
2022/08/11 12:31:20;;;;;;;2.12;1.20;;;;;;;;;;2349845;57;21060;-81
2022/08/11 12:33:49;;;;;;;1.12;1.02;;;;;;;;;;2350144;57;21124;-81
2022/08/11 12:36:16;;;;;;;2.60;1.15;;;;;;;;;;2349358;57;21124;-81
2022/08/11 12:38:45;;;;;;;3.10;1.23;;;;;;;;;;2599551;52;21057;-80
2022/08/11 12:46:45;;;;;;;2.40;1.20;;;;;;;;;;2349903;57;21360;-81
2022/08/11 12:52:02;;;;;;;2.58;1.30;;;;;;;;;;2349693;57;20980;-80
2022/08/11 12:54:33;;;;;;;2.83;1.05;;;;;;;;;;2349838;57;21076;-81
2022/08/11 13:05:20;;;;;;;1.98;1.17;;;;;;;;;;2349161;57;21004;-82
2022/08/11 13:07:47;;;;;;;1.70;0.80;;;;;;;;;;2349209;57;21871;-81
2022/08/11 13:12:46;;;;;;;1.45;1.00;;;;;;;;;;2597890;53;21033;-81
2022/08/11 13:15:14;;;;;;;2.95;1.20;;;;;;;;;;2350009;57;21135;-81
2022/08/11 13:17:42;;;;;;;2.37;1.30;;;;;;;;;;2597561;52;21069;-80
2022/08/11 13:20:11;;;;;;;4.95;1.08;;;;;;;;;;2350313;57;21052;-80
2022/08/11 13:22:39;;;;;;;1.20;1.10;;;;;;;;;;2351667;57;21036;-80
2022/08/11 13:25:07;;;;;;;3.03;1.50;;;;;;;;;;2599262;53;21068;-81
2022/08/11 13:27:34;;;;;;;2.00;1.10;;;;;;;;;;2351210;57;21105;-80
2022/08/11 13:32:47;;;;;;;1.10;0.88;;;;;;;;;;2349988;57;20996;-82
2022/08/11 13:35:16;;;;;;;1.35;1.10;;;;;;;;;;2348908;57;21112;-81
2022/08/11 13:37:44;;;;;;;10.05;1.60;;;;;;;;;;2599154;52;21123;-81
2022/08/11 13:40:12;;;;;;;3.08;1.10;;;;;;;;;;2349708;57;21060;-80
2022/08/11 13:42:40;;;;;;;2.15;1.30;;;;;;;;;;2598852;53;21048;-80
2022/08/11 13:45:08;;;;;;;3.70;1.42;;;;;;;;;;2349732;57;21056;-81
2022/08/11 13:47:36;;;;;;;3.33;1.20;;;;;;;;;;2598615;52;22012;-82
2022/08/11 13:50:04;;;;;;;1.83;1.30;;;;;;;;;;2351005;57;21546;-80
2022/08/11 13:52:31;;;;;;;2.00;1.02;;;;;;;;;;2349050;57;21861;-80
2022/08/11 13:54:59;;;;;;;2.33;1.15;;;;;;;;;;2599139;53;21191;-81
2022/08/11 13:57:26;;;;;;;3.75;1.40;;;;;;;;;;2599121;52;21068;-82
2022/08/11 13:59:55;;;;;;;2.62;1.15;;;;;;;;;;2599232;53;21453;-81
2022/08/11 14:02:24;;;;;;;2.60;1.12;;;;;;;;;;2350883;57;21073;-80
2022/08/11 14:04:54;;;;;;;3.97;1.52;;;;;;;;;;2351056;57;21123;-81
2022/08/11 14:07:22;;;;;;;2.28;1.30;;;;;;;;;;2350987;57;21056;-82
2022/08/11 14:09:53;;;;;;;1.65;1.30;;;;;;;;;;2351197;57;21129;-82
2022/08/11 14:15:10;;;;;;;1.62;1.35;;;;;;;;;;2351440;57;21052;-81
2022/08/11 14:17:39;;;;;;;2.78;1.30;;;;;;;;;;2349546;57;21758;-80
2022/08/11 14:20:10;;;;;;;3.90;1.20;;;;;;;;;;2599672;53;21585;-79
2022/08/11 14:22:40;;;;;;;1.70;1.05;;;;;;;;;;2351217;57;21064;-81
2022/08/11 14:25:08;;;;;;;4.62;1.20;;;;;;;;;;2351234;57;21059;-80
2022/08/11 14:27:35;;;;;;;3.17;1.30;;;;;;;;;;2350110;57;21052;-80
2022/08/11 14:30:02;;;;;;;1.77;1.15;;;;;;;;;;2350653;57;21056;-81
2022/08/11 14:32:29;;;;;;;4.30;1.40;;;;;;;;;;2351192;57;21541;-81
2022/08/11 14:34:57;;;;;;;3.72;1.30;;;;;;;;;;2350928;57;21088;-81
2022/08/11 14:37:26;;;;;;;2.97;1.20;;;;;;;;;;2350348;57;21076;-80
2022/08/11 14:39:53;;;;;;;2.87;1.25;;;;;;;;;;2350770;57;21553;-80
2022/08/11 14:48:01;;;;;;;4.43;1.12;;;;;;;;;;2348596;57;21117;-77
2022/08/11 14:50:29;;;;;;;1.70;1.20;;;;;;;;;;2349817;57;21049;-77
2022/08/11 14:52:58;;;;;;;2.33;1.37;;;;;;;;;;2348644;57;21129;-77
2022/08/11 14:58:14;;;;;;;3.03;1.20;;;;;;;;;;2348820;57;21056;-77
2022/08/11 15:00:42;;;;;;;2.33;1.20;;;;;;;;;;2348933;57;21041;-77
2022/08/11 15:03:11;;;;;;;3.83;1.40;;;;;;;;;;2348932;57;21520;-77
2022/08/11 15:05:39;;;;;;;6.90;1.35;;;;;;;;;;2596348;53;21131;-77
2022/08/11 15:08:07;;;;;;;2.90;1.15;;;;;;;;;;2348973;57;21064;-77
2022/08/11 15:10:35;;;;;;;1.98;1.17;;;;;;;;;;2348736;57;21773;-77
2022/08/11 15:13:02;;;;;;;5.12;1.23;;;;;;;;;;2349383;57;21774;-77
2022/08/11 15:18:17;;;;;;;3.80;1.50;;;;;;;;;;2349471;57;22141;-77
2022/08/11 15:26:17;;;;;;;2.25;1.20;;;;;;;;;;2348559;57;21628;-76
2022/08/11 15:37:25;;;;;;;1.80;1.10;;;;;;;;;;2348791;57;22114;-77
2022/08/11 15:48:14;;;;;;;2.45;1.27;;;;;;;;;;2348853;57;21287;-77
2022/08/11 15:50:46;;;;;;;4.85;1.27;;;;;;;;;;2348698;57;21044;-76
2022/08/11 15:53:17;;;;;;;2.33;1.10;;;;;;;;;;2348942;57;21048;-77
2022/08/11 15:55:45;;;;;;;2.22;1.10;;;;;;;;;;2348340;57;21869;-76
2022/08/11 16:06:31;;;;;;;2.30;1.23;;;;;;;;;;2348531;57;20993;-77
2022/08/11 16:09:01;;;;;;;1.90;1.35;;;;;;;;;;2597451;53;21053;-76
2022/08/11 16:11:29;;;;;;;2.05;1.17;;;;;;;;;;2348757;57;21283;-77
2022/08/11 16:16:42;;;;;;;2.30;1.17;;;;;;;;;;2348693;57;21592;-77
2022/08/11 16:19:10;;;;;;;2.40;1.00;;;;;;;;;;2349288;57;21057;-77
2022/08/11 16:21:38;;;;;;;2.95;1.30;;;;;;;;;;2349154;57;21330;-77
2022/08/11 16:24:07;;;;;;;2.75;1.30;;;;;;;;;;2349023;57;21048;-77
2022/08/11 16:26:37;;;;;;;2.70;1.10;;;;;;;;;;2597265;52;21296;-77
2022/08/11 16:29:04;;;;;;;1.73;1.08;;;;;;;;;;2348194;57;21120;-77
2022/08/11 16:31:32;;;;;;;1.62;1.05;;;;;;;;;;2349003;57;21759;-77
2022/08/11 16:34:00;;;;;;;1.35;1.00;;;;;;;;;;2348405;57;21057;-77
2022/08/11 16:39:17;;;;;;;1.20;0.80;;;;;;;;;;2349144;57;21072;-76
2022/08/11 16:47:19;;;;;;;1.70;0.80;;;;;;;;;;2346943;57;21068;-77
2022/08/11 16:49:48;;;;;;;1.95;1.10;;;;;;;;;;2349209;57;21724;-77
2022/08/11 16:52:15;;;;;;;1.25;1.08;;;;;;;;;;2349358;57;21124;-77
2022/08/11 16:54:43;;;;;;;2.03;0.95;;;;;;;;;;2349205;57;21321;-77
2022/08/11 17:00:00;;;;;;;1.50;0.98;;;;;;;;;;2348940;57;21460;-77
2022/08/11 17:13:42;;;;;;;1.62;1.00;;;;;;;;;;2349334;57;21111;-77
2022/08/11 17:16:11;;;;;;;1.95;1.10;;;;;;;;;;2348765;57;21060;-78
2022/08/11 17:18:42;;;;;;;1.73;1.20;;;;;;;;;;2348864;57;21060;-77
2022/08/11 17:21:13;;;;;;;2.67;1.17;;;;;;;;;;2349195;57;21068;-81
2022/08/11 17:23:49;;;;;;;3.95;1.30;;;;;;;;;;2599892;53;21069;-82
2022/08/11 17:26:55;;;;;;;1.83;1.17;;;;;;;;;;2599414;52;21920;-82
2022/08/11 17:29:25;;;;;;;4.87;1.50;;;;;;;;;;2599367;53;21123;-82
2022/08/11 17:37:27;;;;;;;4.65;1.27;;;;;;;;;;2350768;57;21092;-81
2022/08/11 17:39:54;;;;;;;4.37;1.40;;;;;;;;;;2598401;52;21131;-81
2022/08/11 17:50:43;;;;;;;3.10;1.30;;;;;;;;;;2362764;56;21704;-81
2022/08/11 18:01:32;;;;;;;6.15;1.60;;;;;;;;;;2350612;57;21100;-79
2022/08/11 18:03:59;;;;;;;2.55;1.33;;;;;;;;;;2350519;57;21338;-80
2022/08/11 18:06:28;;;;;;;2.67;1.10;;;;;;;;;;2350678;57;21140;-80
